createdAt,value
2023-02-11T00:01:08.488Z,4.95
2023-02-11T00:03:38.911Z,4.87
2023-02-11T00:06:10.336Z,4.90
2023-02-11T00:08:38.423Z,4.96
2023-02-11T00:11:06.950Z,4.94
2023-02-11T00:13:35.022Z,4.98
2023-02-11T00:16:07.935Z,4.98
2023-02-11T00:18:37.759Z,4.87
2023-02-11T00:21:10.503Z,4.94
2023-02-11T00:23:38.771Z,5.01
2023-02-11T00:26:12.378Z,4.98
2023-02-11T00:28:42.057Z,4.98
2023-02-11T00:31:10.184Z,5.00
2023-02-11T00:33:38.299Z,5.01
2023-02-11T00:36:06.697Z,5.07
2023-02-11T00:38:37.546Z,4.93
2023-02-11T00:41:05.752Z,5.01
2023-02-11T00:43:34.038Z,5.06
2023-02-11T00:46:02.099Z,5.01
2023-02-11T00:48:30.544Z,5.06
2023-02-11T00:50:58.620Z,5.16
2023-02-11T00:53:26.645Z,5.26
2023-02-11T00:55:56.110Z,5.29
2023-02-11T00:58:24.188Z,5.39
2023-02-11T01:00:58.532Z,5.31
2023-02-11T01:03:26.656Z,5.29
2023-02-11T01:05:54.675Z,5.28
2023-02-11T01:08:22.795Z,5.39
2023-02-11T01:10:57.208Z,5.41
2023-02-11T01:13:25.342Z,5.46
2023-02-11T01:15:53.705Z,5.25
2023-02-11T01:18:21.874Z,5.36
2023-02-11T01:20:50.083Z,5.34
2023-02-11T01:23:18.261Z,5.31
2023-02-11T01:25:46.660Z,5.22
2023-02-11T01:28:19.163Z,5.32
2023-02-11T01:30:47.837Z,5.38
2023-02-11T01:33:16.141Z,5.41
2023-02-11T01:35:44.428Z,5.36
2023-02-11T01:38:16.904Z,5.47
2023-02-11T01:40:49.037Z,5.35
2023-02-11T01:43:18.695Z,5.41
2023-02-11T01:46:01.326Z,5.39
2023-02-11T01:48:31.021Z,5.58
2023-02-11T01:51:03.084Z,5.31
2023-02-11T01:53:48.821Z,5.45
2023-02-11T01:56:34.549Z,5.33
2023-02-11T01:59:07.394Z,5.37
2023-02-11T02:01:38.052Z,5.31
2023-02-11T02:04:06.350Z,5.35
2023-02-11T02:06:35.917Z,5.27
2023-02-11T02:09:06.676Z,5.35
2023-02-11T02:11:34.737Z,5.38
2023-02-11T02:14:04.429Z,5.40
2023-02-11T02:16:34.058Z,5.44
2023-02-11T02:19:20.514Z,5.36
2023-02-11T02:22:21.916Z,5.33
2023-02-11T02:25:01.303Z,5.31
2023-02-11T02:27:35.830Z,5.36
2023-02-11T02:30:33.666Z,5.24
2023-02-11T02:33:21.616Z,5.33
2023-02-11T02:35:55.365Z,5.32
2023-02-11T02:38:25.544Z,5.26
2023-02-11T02:40:56.315Z,5.22
2023-02-11T02:43:24.366Z,5.31
2023-02-11T02:45:52.673Z,5.36
2023-02-11T02:48:32.071Z,5.14
2023-02-11T02:51:04.898Z,5.36
2023-02-11T02:53:37.072Z,5.40
2023-02-11T02:56:06.451Z,5.40
2023-02-11T02:59:05.236Z,5.47
2023-02-11T03:01:37.442Z,5.40
2023-02-11T03:04:12.554Z,5.38
2023-02-11T03:06:45.233Z,5.39
2023-02-11T03:09:14.941Z,5.39
2023-02-11T03:11:42.962Z,5.40
2023-02-11T03:14:12.902Z,5.21
2023-02-11T03:16:41.019Z,5.34
2023-02-11T03:19:12.702Z,5.23
2023-02-11T03:21:41.502Z,5.22
2023-02-11T03:24:11.568Z,5.25
2023-02-11T03:26:40.304Z,5.32
2023-02-11T03:29:10.787Z,5.34
2023-02-11T03:31:41.786Z,5.30
2023-02-11T03:34:14.585Z,5.30
2023-02-11T03:36:45.993Z,5.25
2023-02-11T03:39:14.585Z,5.36
2023-02-11T03:41:43.303Z,5.28
2023-02-11T03:44:11.590Z,5.31
2023-02-11T03:46:40.156Z,5.33
2023-02-11T03:49:11.680Z,5.20
2023-02-11T03:51:39.814Z,5.10
2023-02-11T03:54:11.039Z,5.23
2023-02-11T03:56:41.162Z,5.28
2023-02-11T03:59:09.455Z,5.18
2023-02-11T04:01:37.462Z,5.05
2023-02-11T04:04:06.061Z,5.25
2023-02-11T04:06:35.533Z,5.21
2023-02-11T04:09:03.780Z,5.12
2023-02-11T04:11:32.360Z,5.21
2023-02-11T04:14:00.989Z,5.08
2023-02-11T04:16:30.232Z,5.14
2023-02-11T04:18:58.826Z,5.10
2023-02-11T04:21:26.937Z,5.05
2023-02-11T04:23:56.381Z,5.07
2023-02-11T04:26:24.749Z,5.18
2023-02-11T04:28:52.810Z,5.17
2023-02-11T04:31:20.966Z,5.06
2023-02-11T04:33:49.281Z,5.10
2023-02-11T04:36:17.323Z,4.99
2023-02-11T04:38:45.413Z,5.05
2023-02-11T04:41:14.894Z,4.96
2023-02-11T04:43:42.983Z,4.88
2023-02-11T04:46:11.114Z,5.06
2023-02-11T04:48:39.279Z,5.08
2023-02-11T04:51:07.659Z,5.04
2023-02-11T04:53:35.903Z,4.94
2023-02-11T04:56:04.068Z,5.08
2023-02-11T04:58:33.699Z,5.10
2023-02-11T05:01:07.671Z,5.11
2023-02-11T05:03:35.778Z,4.97
2023-02-11T05:06:03.958Z,5.04
2023-02-11T05:08:32.500Z,5.08
2023-02-11T05:11:02.166Z,5.10
2023-02-11T05:13:30.382Z,5.14
2023-02-11T05:15:59.821Z,5.02
2023-02-11T05:18:27.905Z,5.00
2023-02-11T05:20:55.945Z,4.97
2023-02-11T05:23:24.066Z,5.11
2023-02-11T05:25:52.378Z,5.14
2023-02-11T05:28:20.564Z,5.06
2023-02-11T05:30:48.738Z,5.08
2023-02-11T05:33:18.293Z,5.15
2023-02-11T05:35:46.296Z,5.01
2023-02-11T05:38:14.380Z,5.02
2023-02-11T05:40:42.390Z,5.04
2023-02-11T05:43:10.442Z,5.02
2023-02-11T05:45:38.426Z,5.04
2023-02-11T05:48:07.095Z,4.93
2023-02-11T05:50:36.680Z,5.03
2023-02-11T05:53:05.695Z,4.98
2023-02-11T05:55:33.920Z,4.86
2023-02-11T05:58:02.358Z,5.01
2023-02-11T06:00:30.447Z,4.89
2023-02-11T06:02:58.478Z,4.96
2023-02-11T06:05:26.688Z,5.05
2023-02-11T06:07:56.329Z,5.07
2023-02-11T06:10:24.441Z,5.09
2023-02-11T06:12:52.425Z,4.94
2023-02-11T06:15:20.588Z,5.10
2023-02-11T06:17:48.644Z,5.10
2023-02-11T06:20:17.600Z,5.06
2023-02-11T06:22:45.680Z,5.13
2023-02-11T06:25:15.135Z,5.12
2023-02-11T06:27:43.527Z,5.14
2023-02-11T06:30:12.675Z,5.31
2023-02-11T06:32:45.391Z,5.22
2023-02-11T06:35:14.297Z,5.24
2023-02-11T06:37:42.372Z,5.05
2023-02-11T06:40:11.058Z,5.23
2023-02-11T06:42:40.551Z,5.15
2023-02-11T06:45:13.303Z,5.12
2023-02-11T06:47:41.673Z,5.10
2023-02-11T06:50:10.473Z,5.01
2023-02-11T06:52:38.613Z,5.10
2023-02-11T06:55:07.263Z,5.06
2023-02-11T06:57:38.119Z,5.07
2023-02-11T07:00:09.034Z,5.16
2023-02-11T07:02:37.547Z,5.12
2023-02-11T07:05:07.066Z,5.14
2023-02-11T07:07:35.204Z,5.17
2023-02-11T07:10:04.720Z,5.35
2023-02-11T07:12:33.274Z,5.15
2023-02-11T07:15:01.656Z,5.28
2023-02-11T07:17:31.310Z,5.11
2023-02-11T07:19:59.293Z,5.20
2023-02-11T07:22:27.303Z,5.06
2023-02-11T07:24:55.333Z,5.07
2023-02-11T07:27:23.368Z,5.01
2023-02-11T07:29:51.376Z,5.09
2023-02-11T07:32:19.500Z,5.22
2023-02-11T07:34:49.612Z,5.36
2023-02-11T07:37:18.347Z,5.18
2023-02-11T07:39:46.386Z,5.22
2023-02-11T07:42:14.396Z,5.20
2023-02-11T07:44:42.835Z,5.31
2023-02-11T07:47:10.788Z,5.37
2023-02-11T07:49:38.883Z,5.47
2023-02-11T07:52:08.807Z,5.43
2023-02-11T07:54:36.863Z,5.26
2023-02-11T07:57:05.100Z,5.30
2023-02-11T07:59:33.870Z,5.18
2023-02-11T08:02:01.986Z,5.41
2023-02-11T08:04:30.170Z,5.37
2023-02-11T08:06:59.273Z,5.31
2023-02-11T08:09:28.906Z,5.37
2023-02-11T08:11:56.961Z,5.45
2023-02-11T08:14:25.316Z,5.38
2023-02-11T08:16:54.666Z,5.46
2023-02-11T08:19:22.759Z,5.50
2023-02-11T08:21:51.232Z,5.55
2023-02-11T08:24:19.387Z,5.28
2023-02-11T08:26:49.599Z,5.39
2023-02-11T08:29:18.272Z,5.32
2023-02-11T08:31:47.202Z,5.48
2023-02-11T08:34:18.449Z,5.40
2023-02-11T08:36:47.561Z,5.53
2023-02-11T08:39:19.697Z,5.46
2023-02-11T08:41:50.059Z,5.50
2023-02-11T08:44:18.412Z,5.46
2023-02-11T08:46:46.853Z,5.58
2023-02-11T08:49:15.240Z,5.64
2023-02-11T08:51:43.943Z,5.79
2023-02-11T08:54:12.124Z,5.71
2023-02-11T08:56:42.641Z,5.84
2023-02-11T08:59:12.858Z,5.85
2023-02-11T09:01:41.014Z,5.80
2023-02-11T09:04:09.143Z,5.69
2023-02-11T09:06:37.516Z,5.81
2023-02-11T09:09:05.661Z,5.96
2023-02-11T09:11:35.321Z,5.90
2023-02-11T09:14:04.646Z,5.85
2023-02-11T09:16:35.018Z,5.84
2023-02-11T09:19:04.454Z,5.61
2023-02-11T09:21:35.939Z,5.68
2023-02-11T09:24:09.746Z,5.78
2023-02-11T09:26:40.887Z,5.93
2023-02-11T09:29:08.912Z,6.01
2023-02-11T09:31:38.933Z,6.00
2023-02-11T09:34:07.228Z,5.99
2023-02-11T09:36:37.483Z,6.13
2023-02-11T09:39:07.124Z,5.98
2023-02-11T09:41:40.749Z,5.96
2023-02-11T09:44:10.655Z,5.91
2023-02-11T09:46:42.289Z,5.88
2023-02-11T09:49:13.205Z,6.00
2023-02-11T09:51:42.452Z,6.04
2023-02-11T09:54:14.440Z,6.01
2023-02-11T09:56:42.807Z,6.16
2023-02-11T09:59:12.208Z,6.15
2023-02-11T10:01:43.340Z,6.24
2023-02-11T10:04:15.354Z,6.10
2023-02-11T10:06:45.099Z,6.25
2023-02-11T10:09:48.680Z,6.31
2023-02-11T10:12:23.950Z,6.24
2023-02-11T10:15:02.920Z,6.18
2023-02-11T10:17:36.417Z,6.07
2023-02-11T10:20:16.741Z,6.10
2023-02-11T10:22:46.696Z,6.23
2023-02-11T10:25:20.909Z,6.34
2023-02-11T10:27:49.079Z,6.34
2023-02-11T10:30:22.347Z,6.21
2023-02-11T10:32:53.675Z,6.26
2023-02-11T10:35:23.249Z,6.43
2023-02-11T10:37:54.164Z,6.35
2023-02-11T10:40:23.277Z,6.35
2023-02-11T10:42:55.372Z,6.30
2023-02-11T10:45:27.243Z,6.40
2023-02-11T10:47:57.198Z,6.25
2023-02-11T10:50:26.301Z,6.27
2023-02-11T10:52:54.376Z,6.41
2023-02-11T10:55:24.684Z,6.52
2023-02-11T10:57:56.588Z,6.56
2023-02-11T11:00:38.037Z,6.51
2023-02-11T11:03:16.307Z,6.60
2023-02-11T11:05:48.156Z,6.50
2023-02-11T11:08:17.986Z,6.61
2023-02-11T11:10:47.255Z,6.70
2023-02-11T11:13:28.956Z,6.62
2023-02-11T11:16:25.511Z,6.59
2023-02-11T11:19:06.620Z,6.46
2023-02-11T11:21:37.174Z,6.58
2023-02-11T11:24:07.149Z,6.66
2023-02-11T11:26:41.663Z,6.67
2023-02-11T11:29:11.732Z,6.70
2023-02-11T11:31:48.387Z,6.78
2023-02-11T11:34:22.724Z,6.75
2023-02-11T11:36:51.302Z,6.44
2023-02-11T11:39:22.282Z,6.81
2023-02-11T11:41:54.851Z,6.70
2023-02-11T11:44:28.968Z,6.82
2023-02-11T11:47:22.743Z,6.66
2023-02-11T11:49:57.789Z,6.80
2023-02-11T11:52:35.583Z,6.92
2023-02-11T11:55:06.616Z,6.91
2023-02-11T11:57:38.641Z,6.96
2023-02-11T12:00:07.983Z,6.81
2023-02-11T12:02:52.618Z,6.76
2023-02-11T12:05:25.066Z,6.69
2023-02-11T12:07:59.182Z,6.72
2023-02-11T12:10:36.697Z,6.72
2023-02-11T12:13:11.244Z,6.73
2023-02-11T12:15:42.593Z,6.71
2023-02-11T12:18:23.452Z,6.81
2023-02-11T12:21:00.759Z,6.84
2023-02-11T12:23:35.879Z,6.91
2023-02-11T12:26:13.075Z,6.95
2023-02-11T12:28:44.074Z,6.85
2023-02-11T12:31:29.304Z,6.87
2023-02-11T12:34:20.311Z,6.90
2023-02-11T12:36:57.884Z,6.91
2023-02-11T12:39:38.418Z,7.02
2023-02-11T12:42:49.400Z,6.96
2023-02-11T12:45:27.494Z,7.00
2023-02-11T12:48:08.699Z,7.14
2023-02-11T12:50:39.624Z,7.16
2023-02-11T12:53:19.206Z,7.07
2023-02-11T12:55:48.827Z,6.87
2023-02-11T12:58:20.022Z,7.13
2023-02-11T13:00:50.125Z,7.00
2023-02-11T13:03:21.076Z,7.06
2023-02-11T13:05:50.866Z,7.08
2023-02-11T13:08:22.126Z,6.93
2023-02-11T13:10:52.196Z,7.08
2023-02-11T13:13:22.576Z,7.19
2023-02-11T13:15:52.870Z,7.14
2023-02-11T13:18:44.263Z,7.06
2023-02-11T13:21:31.146Z,7.29
2023-02-11T13:24:05.682Z,7.26
2023-02-11T13:26:38.763Z,7.24
2023-02-11T13:29:14.761Z,7.30
2023-02-11T13:31:43.010Z,7.16
2023-02-11T13:34:26.116Z,6.85
2023-02-11T13:36:57.777Z,7.04
2023-02-11T13:39:27.327Z,6.88
2023-02-11T13:42:05.234Z,6.81
2023-02-11T13:44:34.843Z,6.89
2023-02-11T13:47:04.760Z,7.03
2023-02-11T13:49:38.338Z,7.03
2023-02-11T13:52:07.765Z,7.18
2023-02-11T13:54:39.238Z,7.29
2023-02-11T13:57:31.152Z,7.18
2023-02-11T13:59:59.290Z,7.19
2023-02-11T14:02:48.141Z,7.27
2023-02-11T14:05:47.678Z,6.99
2023-02-11T14:08:42.964Z,7.02
2023-02-11T14:11:46.798Z,6.99
2023-02-11T14:14:24.056Z,7.24
2023-02-11T14:17:34.576Z,7.15
2023-02-11T14:20:05.579Z,7.14
2023-02-11T14:22:42.507Z,6.99
2023-02-11T14:25:19.215Z,7.21
2023-02-11T14:27:51.617Z,7.01
2023-02-11T14:30:36.191Z,7.21
2023-02-11T14:33:12.497Z,7.25
2023-02-11T14:35:42.393Z,7.25
2023-02-11T14:38:15.168Z,7.28
2023-02-11T14:40:47.638Z,7.36
2023-02-11T14:43:19.408Z,7.14
2023-02-11T14:45:52.269Z,7.22
2023-02-11T14:48:21.333Z,7.36
2023-02-11T14:50:51.718Z,7.27
2023-02-11T14:53:21.564Z,7.28
2023-02-11T14:55:50.879Z,7.38
2023-02-11T14:58:23.215Z,7.35
2023-02-11T15:01:04.482Z,7.50
2023-02-11T15:03:36.872Z,7.38
2023-02-11T15:06:07.245Z,7.34
2023-02-11T15:08:36.600Z,7.34
2023-02-11T15:11:05.364Z,7.31
2023-02-11T15:13:35.235Z,7.32
2023-02-11T15:16:07.939Z,7.27
2023-02-11T15:18:38.824Z,7.28
2023-02-11T15:21:07.123Z,7.38
2023-02-11T15:23:35.526Z,7.38
2023-02-11T15:26:05.747Z,7.43
2023-02-11T15:28:38.355Z,7.38
2023-02-11T15:31:07.190Z,7.40
2023-02-11T15:33:35.223Z,7.29
2023-02-11T15:36:03.586Z,7.18
2023-02-11T15:38:31.691Z,7.14
2023-02-11T15:41:00.883Z,7.18
2023-02-11T15:43:43.618Z,7.31
2023-02-11T15:46:11.866Z,7.30
2023-02-11T15:48:43.559Z,7.18
2023-02-11T15:51:15.063Z,7.44
2023-02-11T15:53:43.551Z,7.41
2023-02-11T15:56:13.434Z,7.35
2023-02-11T15:58:44.382Z,7.43
2023-02-11T16:01:12.835Z,7.33
2023-02-11T16:03:41.821Z,7.31
2023-02-11T16:06:20.376Z,7.49
2023-02-11T16:09:01.691Z,7.49
2023-02-11T16:11:33.018Z,7.46
2023-02-11T16:14:05.170Z,7.61
2023-02-11T16:16:35.425Z,7.52
2023-02-11T16:19:06.883Z,7.58
2023-02-11T16:21:42.237Z,7.53
2023-02-11T16:24:19.251Z,7.42
2023-02-11T16:26:48.998Z,7.42
2023-02-11T16:29:20.313Z,7.59
2023-02-11T16:31:48.922Z,7.47
2023-02-11T16:34:18.143Z,7.50
2023-02-11T16:36:46.319Z,7.55
2023-02-11T16:39:14.378Z,7.50
2023-02-11T16:41:42.387Z,7.49
2023-02-11T16:44:10.400Z,7.47
2023-02-11T16:46:40.151Z,7.42
2023-02-11T16:49:22.972Z,7.67
2023-02-11T16:52:02.202Z,7.67
2023-02-11T16:54:30.620Z,7.60
2023-02-11T16:56:59.115Z,7.65
2023-02-11T16:59:28.333Z,7.60
2023-02-11T17:01:58.233Z,7.61
2023-02-11T17:04:28.251Z,7.32
2023-02-11T17:06:58.333Z,7.41
2023-02-11T17:09:30.575Z,7.39
2023-02-11T17:11:59.257Z,7.35
2023-02-11T17:14:27.595Z,7.55
2023-02-11T17:16:57.789Z,7.59
2023-02-11T17:19:25.797Z,7.45
2023-02-11T17:21:53.806Z,7.48
2023-02-11T17:24:21.913Z,7.47
2023-02-11T17:26:50.244Z,7.51
2023-02-11T17:29:19.560Z,7.56
2023-02-11T17:31:47.666Z,7.38
2023-02-11T17:34:17.799Z,7.44
2023-02-11T17:36:46.348Z,7.50
2023-02-11T17:39:14.558Z,7.39
2023-02-11T17:41:42.775Z,7.39
2023-02-11T17:44:12.448Z,7.26
2023-02-11T17:46:40.632Z,7.38
2023-02-11T17:49:08.714Z,7.29
2023-02-11T17:51:38.911Z,7.30
2023-02-11T17:54:07.993Z,7.46
2023-02-11T17:56:37.000Z,7.33
2023-02-11T17:59:05.097Z,7.36
2023-02-11T18:01:36.031Z,7.41
2023-02-11T18:04:04.318Z,7.28
2023-02-11T18:06:33.901Z,7.28
2023-02-11T18:09:04.447Z,7.07
2023-02-11T18:11:33.722Z,7.47
2023-02-11T18:14:01.802Z,7.44
2023-02-11T18:16:39.658Z,7.33
2023-02-11T18:19:36.772Z,7.43
2023-02-11T18:22:04.964Z,7.36
2023-02-11T18:24:35.461Z,7.48
2023-02-11T18:27:03.686Z,7.41
2023-02-11T18:29:32.198Z,7.52
2023-02-11T18:32:00.293Z,7.41
2023-02-11T18:34:28.668Z,7.31
2023-02-11T18:36:56.730Z,7.46
2023-02-11T18:39:26.498Z,7.63
2023-02-11T18:41:58.915Z,7.54
2023-02-11T18:44:27.165Z,7.23
2023-02-11T18:46:55.594Z,7.52
2023-02-11T18:49:23.555Z,7.48
2023-02-11T18:51:51.618Z,7.56
2023-02-11T18:54:19.750Z,7.35
2023-02-11T18:56:47.860Z,7.40
2023-02-11T18:59:17.338Z,7.43
2023-02-11T19:01:47.015Z,7.48
2023-02-11T19:04:19.706Z,7.53
2023-02-11T19:06:48.660Z,7.56
2023-02-11T19:09:18.051Z,7.58
2023-02-11T19:11:49.809Z,7.47
2023-02-11T19:14:21.542Z,7.28
2023-02-11T19:16:50.740Z,7.54
2023-02-11T19:19:19.195Z,7.63
2023-02-11T19:21:47.683Z,7.64
2023-02-11T19:24:18.891Z,7.60
2023-02-11T19:26:47.052Z,7.49
2023-02-11T19:29:15.001Z,7.41
2023-02-11T19:31:44.761Z,7.60
2023-02-11T19:34:14.608Z,7.36
2023-02-11T19:36:42.773Z,7.40
2023-02-11T19:39:10.819Z,7.52
2023-02-11T19:41:39.500Z,7.55
2023-02-11T19:44:07.853Z,7.47
2023-02-11T19:46:37.237Z,7.46
2023-02-11T19:49:07.077Z,7.49
2023-02-11T19:51:36.975Z,7.44
2023-02-11T19:54:05.387Z,7.42
2023-02-11T19:56:33.535Z,7.45
2023-02-11T19:59:03.301Z,7.55
2023-02-11T20:01:31.502Z,7.50
2023-02-11T20:04:00.223Z,7.53
2023-02-11T20:06:30.372Z,7.56
2023-02-11T20:08:59.493Z,7.47
2023-02-11T20:11:28.202Z,7.59
2023-02-11T20:13:56.366Z,7.53
2023-02-11T20:16:33.952Z,7.57
2023-02-11T20:19:17.960Z,7.59
2023-02-11T20:21:48.597Z,7.56
2023-02-11T20:24:17.041Z,7.50
2023-02-11T20:26:46.979Z,7.59
2023-02-11T20:29:15.390Z,7.72
2023-02-11T20:31:44.044Z,7.61
2023-02-11T20:34:12.205Z,7.50
2023-02-11T20:36:40.725Z,7.57
2023-02-11T20:39:11.528Z,7.64
2023-02-11T20:41:40.828Z,7.56
2023-02-11T20:44:09.537Z,7.46
2023-02-11T20:46:38.709Z,7.46
2023-02-11T20:49:08.749Z,7.62
2023-02-11T20:51:37.442Z,7.63
2023-02-11T20:54:06.482Z,7.69
2023-02-11T20:56:37.313Z,7.67
2023-02-11T20:59:07.643Z,7.67
2023-02-11T21:01:37.441Z,7.79
2023-02-11T21:04:07.045Z,7.61
2023-02-11T21:06:36.661Z,7.64
2023-02-11T21:09:04.915Z,7.39
2023-02-11T21:11:33.099Z,7.66
2023-02-11T21:14:04.302Z,7.56
2023-02-11T21:16:32.743Z,7.49
2023-02-11T21:19:03.070Z,7.69
2023-02-11T21:21:31.209Z,7.46
2023-02-11T21:23:59.687Z,7.52
2023-02-11T21:26:27.940Z,7.39
2023-02-11T21:29:05.587Z,7.47
2023-02-11T21:31:34.666Z,7.53
2023-02-11T21:34:05.609Z,7.66
2023-02-11T21:36:33.792Z,7.54
2023-02-11T21:39:03.867Z,7.66
2023-02-11T21:41:32.195Z,7.70
2023-02-11T21:44:00.281Z,7.64
2023-02-11T21:46:29.741Z,7.65
2023-02-11T21:48:58.359Z,7.70
2023-02-11T21:51:26.674Z,7.80
2023-02-11T21:53:55.275Z,7.73
2023-02-11T21:56:23.369Z,7.66
2023-02-11T21:58:53.304Z,7.74
2023-02-11T22:01:22.233Z,7.68
2023-02-11T22:03:54.332Z,7.67
2023-02-11T22:06:23.019Z,7.85
2023-02-11T22:08:51.207Z,7.76
2023-02-11T22:11:19.689Z,7.72
2023-02-11T22:13:48.019Z,7.74
2023-02-11T22:16:17.254Z,7.83
2023-02-11T22:18:46.511Z,7.70
2023-02-11T22:21:17.089Z,7.76
2023-02-11T22:23:45.162Z,7.81
2023-02-11T22:26:14.680Z,7.74
2023-02-11T22:28:43.260Z,7.81
2023-02-11T22:31:12.657Z,7.80
2023-02-11T22:33:40.882Z,7.83
2023-02-11T22:36:10.334Z,7.92
2023-02-11T22:38:40.110Z,7.87
2023-02-11T22:41:09.453Z,7.74
2023-02-11T22:43:37.703Z,7.67
2023-02-11T22:46:06.896Z,7.70
2023-02-11T22:48:35.131Z,7.63
2023-02-11T22:51:07.103Z,7.47
2023-02-11T22:53:35.297Z,7.32
2023-02-11T22:56:05.716Z,7.44
2023-02-11T22:58:36.233Z,7.58
2023-02-11T23:01:05.044Z,7.38
2023-02-11T23:03:33.200Z,7.54
2023-02-11T23:06:01.391Z,7.64
2023-02-11T23:08:29.403Z,7.49
2023-02-11T23:10:58.014Z,7.70
2023-02-11T23:13:27.440Z,7.67
2023-02-11T23:15:55.855Z,7.47
2023-02-11T23:18:23.966Z,7.74
2023-02-11T23:20:52.553Z,7.70
2023-02-11T23:23:20.591Z,7.88
2023-02-11T23:25:49.512Z,7.65
2023-02-11T23:28:18.658Z,7.78
2023-02-11T23:30:48.676Z,7.84
2023-02-11T23:33:16.766Z,7.83
2023-02-11T23:35:44.784Z,7.88
2023-02-11T23:38:12.883Z,7.84
2023-02-11T23:40:43.944Z,7.80
2023-02-11T23:43:11.982Z,7.74
2023-02-11T23:45:40.049Z,7.66
2023-02-11T23:48:09.561Z,7.34
2023-02-11T23:50:39.624Z,7.62
2023-02-11T23:53:07.729Z,7.59
2023-02-11T23:55:39.955Z,7.77
2023-02-11T23:58:07.992Z,7.69
